Palma Ceia, Florida
Current Conditions -  °F | °C
As of 3:53 AM on Friday 19 Dec 2014 (Local Time) from KTPA Reporting Station
Broken Clouds Broken Clouds  
Wind Chill: 51°   Ceiling: 25000
Heat Index: 51°   Visibility: 10mi
Dew Point: 47°   Wind: 3mph
Humidity: 86%   Direction: 360°N
Pressure: 30.12"   Gusts: NA
Location:  27.9448°N, 82.5145°W
Report Text: KTPA 190853Z 36003KT 10SM BKN250 11/08 A3012 RMK AO2 SLP198 T01060083 56006
Loading
Personal Weather Stations






























Interactive Weather Map New forecast layout! Learn more

10-Day Weather Forecast

Advertisements
Track Severe Weather on mobile